Santa Venetia, California
Current Conditions -  °F | °C
As of 1:15 PM on Saturday 22 Nov 2014 (Local Time) from KDVO Reporting Station
Clear Clear  
Wind Chill: 19°   Ceiling: Unl
Heat Index: 19°   Visibility: NA
Dew Point: 13°   Wind: 16mph
Humidity: 68%   Direction: 270°W
Pressure: 30.1"   Gusts: 23mph
Location:  38.0232°N, 122.547°W
Report Text: KDVO 222115Z AUTO 27014G20KT CLR 19/13 A3010 RMK AO2
Loading
Personal Weather Stations






























Interactive Weather Map New forecast layout! Learn more

10-Day Weather Forecast

Advertisements
Track Severe Weather on mobile